sensor_id;sensor_type;location;lat;lon;timestamp;pressure;altitude;pressure_sealevel;temperature;humidity
75312;BME280;63906;55.686;37.532;2022-10-30T00:00:32;97763.97;;;11.39;82.91
75312;BME280;63906;55.686;37.532;2022-10-30T00:05:51;97755.50;;;11.37;83.42
75312;BME280;63906;55.686;37.532;2022-10-30T00:11:11;97722.16;;;11.25;83.37
75312;BME280;63906;55.686;37.532;2022-10-30T00:16:31;97724.38;;;11.33;83.29
75312;BME280;63906;55.686;37.532;2022-10-30T00:21:50;97725.25;;;11.22;83.65
75312;BME280;63906;55.686;37.532;2022-10-30T00:27:09;97723.16;;;11.41;83.52
75312;BME280;63906;55.686;37.532;2022-10-30T00:32:28;97709.81;;;11.48;83.10
75312;BME280;63906;55.686;37.532;2022-10-30T00:37:48;97719.94;;;11.56;82.53
75312;BME280;63906;55.686;37.532;2022-10-30T00:43:30;97718.00;;;11.68;82.21
75312;BME280;63906;55.686;37.532;2022-10-30T00:48:55;97695.13;;;11.52;82.44
75312;BME280;63906;55.686;37.532;2022-10-30T00:54:17;97682.38;;;11.44;82.64
75312;BME280;63906;55.686;37.532;2022-10-30T00:59:37;97688.88;;;11.58;82.35
75312;BME280;63906;55.686;37.532;2022-10-30T01:04:56;97692.56;;;11.57;82.30
75312;BME280;63906;55.686;37.532;2022-10-30T01:10:16;97679.31;;;11.52;82.44
75312;BME280;63906;55.686;37.532;2022-10-30T01:15:40;97671.28;;;11.64;81.67
75312;BME280;63906;55.686;37.532;2022-10-30T01:26:59;97666.09;;;11.69;81.48
75312;BME280;63906;55.686;37.532;2022-10-30T01:32:33;97677.97;;;11.71;81.94
75312;BME280;63906;55.686;37.532;2022-10-30T01:43:34;97662.34;;;11.65;82.07
75312;BME280;63906;55.686;37.532;2022-10-30T02:05:29;97651.38;;;11.73;81.04
75312;BME280;63906;55.686;37.532;2022-10-30T02:10:51;97638.94;;;11.68;81.60
75312;BME280;63906;55.686;37.532;2022-10-30T02:16:11;97631.59;;;11.70;79.47
75312;BME280;63906;55.686;37.532;2022-10-30T02:21:30;97638.38;;;11.66;79.29
75312;BME280;63906;55.686;37.532;2022-10-30T02:26:49;97690.44;;;11.76;79.42
75312;BME280;63906;55.686;37.532;2022-10-30T02:32:09;97692.34;;;11.80;77.35
75312;BME280;63906;55.686;37.532;2022-10-30T02:37:28;97680.00;;;11.64;76.35
75312;BME280;63906;55.686;37.532;2022-10-30T02:42:51;97695.88;;;11.69;77.18
75312;BME280;63906;55.686;37.532;2022-10-30T02:48:10;97673.50;;;11.50;76.68
75312;BME280;63906;55.686;37.532;2022-10-30T02:53:30;97669.81;;;11.51;76.10
75312;BME280;63906;55.686;37.532;2022-10-30T02:58:49;97670.75;;;11.62;75.82
75312;BME280;63906;55.686;37.532;2022-10-30T03:04:08;97670.59;;;11.51;75.32
75312;BME280;63906;55.686;37.532;2022-10-30T03:09:27;97659.13;;;11.41;74.77
75312;BME280;63906;55.686;37.532;2022-10-30T03:14:47;97666.25;;;11.40;74.50
75312;BME280;63906;55.686;37.532;2022-10-30T03:20:06;97657.88;;;11.26;74.58
75312;BME280;63906;55.686;37.532;2022-10-30T03:25:25;97663.22;;;11.31;75.68
75312;BME280;63906;55.686;37.532;2022-10-30T03:30:44;97655.25;;;11.26;75.21
75312;BME280;63906;55.686;37.532;2022-10-30T03:36:05;97637.09;;;10.91;75.84
75312;BME280;63906;55.686;37.532;2022-10-30T03:41:25;97662.47;;;10.97;75.03
75312;BME280;63906;55.686;37.532;2022-10-30T03:46:44;97679.94;;;11.03;74.53
75312;BME280;63906;55.686;37.532;2022-10-30T03:52:04;97689.44;;;10.88;75.16
75312;BME280;63906;55.686;37.532;2022-10-30T03:57:23;97670.94;;;10.83;75.18
75312;BME280;63906;55.686;37.532;2022-10-30T04:02:50;97661.50;;;10.53;74.87
75312;BME280;63906;55.686;37.532;2022-10-30T04:08:11;97657.81;;;10.54;74.55
75312;BME280;63906;55.686;37.532;2022-10-30T04:13:31;97711.03;;;10.56;74.45
75312;BME280;63906;55.686;37.532;2022-10-30T04:18:50;97689.25;;;10.61;74.04
75312;BME280;63906;55.686;37.532;2022-10-30T04:24:09;97684.97;;;10.71;73.75
75312;BME280;63906;55.686;37.532;2022-10-30T04:29:28;97676.31;;;10.59;73.17
75312;BME280;63906;55.686;37.532;2022-10-30T04:34:48;97659.25;;;10.45;72.96
75312;BME280;63906;55.686;37.532;2022-10-30T04:40:07;97665.00;;;10.59;71.90
75312;BME280;63906;55.686;37.532;2022-10-30T04:45:27;97673.78;;;10.64;72.05
75312;BME280;63906;55.686;37.532;2022-10-30T04:50:46;97671.06;;;10.59;73.13
75312;BME280;63906;55.686;37.532;2022-10-30T04:56:05;97683.25;;;10.48;71.84
75312;BME280;63906;55.686;37.532;2022-10-30T05:01:24;97650.22;;;10.12;73.41
75312;BME280;63906;55.686;37.532;2022-10-30T05:06:43;97659.72;;;10.13;72.27
75312;BME280;63906;55.686;37.532;2022-10-30T05:12:03;97673.56;;;10.09;73.04
75312;BME280;63906;55.686;37.532;2022-10-30T05:17:22;97681.22;;;10.10;72.86
75312;BME280;63906;55.686;37.532;2022-10-30T05:22:41;97684.38;;;10.24;72.67
75312;BME280;63906;55.686;37.532;2022-10-30T05:28:02;97663.75;;;10.04;72.62
75312;BME280;63906;55.686;37.532;2022-10-30T05:33:21;97685.22;;;10.13;73.28
75312;BME280;63906;55.686;37.532;2022-10-30T05:38:40;97673.59;;;9.97;72.45
75312;BME280;63906;55.686;37.532;2022-10-30T05:43:59;97699.66;;;10.39;71.88
75312;BME280;63906;55.686;37.532;2022-10-30T05:49:18;97693.03;;;10.36;71.21
75312;BME280;63906;55.686;37.532;2022-10-30T05:54:38;97688.44;;;10.03;73.10
75312;BME280;63906;55.686;37.532;2022-10-30T05:59:57;97676.38;;;9.79;73.07
75312;BME280;63906;55.686;37.532;2022-10-30T06:05:16;97705.63;;;9.94;72.17
75312;BME280;63906;55.686;37.532;2022-10-30T06:10:35;97688.84;;;9.83;72.75
75312;BME280;63906;55.686;37.532;2022-10-30T06:15:56;97698.34;;;9.73;73.60
75312;BME280;63906;55.686;37.532;2022-10-30T06:21:15;97740.72;;;9.76;71.90
75312;BME280;63906;55.686;37.532;2022-10-30T06:26:34;97732.41;;;9.44;69.80
75312;BME280;63906;55.686;37.532;2022-10-30T06:31:53;97721.09;;;9.32;69.89
75312;BME280;63906;55.686;37.532;2022-10-30T06:37:13;97766.44;;;9.39;67.43
75312;BME280;63906;55.686;37.532;2022-10-30T06:42:32;97766.97;;;9.29;64.03
75312;BME280;63906;55.686;37.532;2022-10-30T06:47:51;97753.72;;;9.12;62.87
75312;BME280;63906;55.686;37.532;2022-10-30T06:53:10;97739.34;;;9.15;62.26
75312;BME280;63906;55.686;37.532;2022-10-30T06:58:29;97744.38;;;9.16;61.33
75312;BME280;63906;55.686;37.532;2022-10-30T07:03:49;97790.56;;;9.06;60.60
75312;BME280;63906;55.686;37.532;2022-10-30T07:09:08;97757.00;;;8.96;60.49
75312;BME280;63906;55.686;37.532;2022-10-30T07:14:27;97735.88;;;8.91;60.60
75312;BME280;63906;55.686;37.532;2022-10-30T07:19:47;97764.97;;;8.89;60.31
75312;BME280;63906;55.686;37.532;2022-10-30T07:25:06;97744.94;;;8.65;61.07
75312;BME280;63906;55.686;37.532;2022-10-30T07:30:26;97742.72;;;8.50;60.03
75312;BME280;63906;55.686;37.532;2022-10-30T07:35:45;97748.66;;;8.46;58.70
75312;BME280;63906;55.686;37.532;2022-10-30T07:41:04;97716.41;;;8.27;59.81
75312;BME280;63906;55.686;37.532;2022-10-30T07:46:23;97727.31;;;8.24;59.18
75312;BME280;63906;55.686;37.532;2022-10-30T07:51:42;97740.41;;;8.42;59.45
75312;BME280;63906;55.686;37.532;2022-10-30T07:57:02;97706.00;;;8.39;58.40
75312;BME280;63906;55.686;37.532;2022-10-30T08:02:21;97716.44;;;8.69;58.62
75312;BME280;63906;55.686;37.532;2022-10-30T08:07:41;97706.97;;;8.68;59.15
75312;BME280;63906;55.686;37.532;2022-10-30T08:13:00;97724.38;;;8.92;58.43
75312;BME280;63906;55.686;37.532;2022-10-30T08:18:19;97755.63;;;9.05;57.54
75312;BME280;63906;55.686;37.532;2022-10-30T08:23:38;97759.03;;;8.94;56.95
75312;BME280;63906;55.686;37.532;2022-10-30T08:28:58;97733.25;;;8.91;56.96
75312;BME280;63906;55.686;37.532;2022-10-30T08:34:17;97730.78;;;8.96;56.48
75312;BME280;63906;55.686;37.532;2022-10-30T08:39:36;97716.63;;;8.97;58.07
75312;BME280;63906;55.686;37.532;2022-10-30T08:44:55;97746.09;;;9.23;57.16
75312;BME280;63906;55.686;37.532;2022-10-30T08:50:15;97710.72;;;9.13;57.07
75312;BME280;63906;55.686;37.532;2022-10-30T08:55:34;97700.91;;;9.21;57.17
75312;BME280;63906;55.686;37.532;2022-10-30T09:00:53;97723.84;;;9.13;58.18
75312;BME280;63906;55.686;37.532;2022-10-30T09:06:12;97696.88;;;9.06;57.25
75312;BME280;63906;55.686;37.532;2022-10-30T09:11:31;97690.63;;;8.96;57.22
75312;BME280;63906;55.686;37.532;2022-10-30T09:16:52;97651.47;;;8.71;57.48
75312;BME280;63906;55.686;37.532;2022-10-30T09:22:12;97673.69;;;8.80;57.95
75312;BME280;63906;55.686;37.532;2022-10-30T09:27:31;97675.97;;;8.65;57.87
75312;BME280;63906;55.686;37.532;2022-10-30T09:32:57;97651.66;;;8.57;59.08
75312;BME280;63906;55.686;37.532;2022-10-30T09:38:17;97638.34;;;8.71;58.29
75312;BME280;63906;55.686;37.532;2022-10-30T09:49:30;97655.31;;;8.68;59.53
75312;BME280;63906;55.686;37.532;2022-10-30T09:55:12;97651.81;;;8.86;59.52
75312;BME280;63906;55.686;37.532;2022-10-30T10:00:39;97636.50;;;9.06;60.41
75312;BME280;63906;55.686;37.532;2022-10-30T10:06:03;97648.03;;;9.17;60.52
75312;BME280;63906;55.686;37.532;2022-10-30T10:11:37;97630.56;;;9.46;58.70
75312;BME280;63906;55.686;37.532;2022-10-30T10:17:00;97649.19;;;9.85;53.65
75312;BME280;63906;55.686;37.532;2022-10-30T10:22:24;97670.31;;;10.18;51.70
75312;BME280;63906;55.686;37.532;2022-10-30T10:33:25;97671.13;;;9.79;47.99
75312;BME280;63906;55.686;37.532;2022-10-30T10:44:34;97685.47;;;9.24;48.80
75312;BME280;63906;55.686;37.532;2022-10-30T10:55:38;97640.94;;;8.59;48.93
75312;BME280;63906;55.686;37.532;2022-10-30T11:00:58;97619.53;;;8.32;49.56
75312;BME280;63906;55.686;37.532;2022-10-30T11:11:36;97674.84;;;7.45;62.80
75312;BME280;63906;55.686;37.532;2022-10-30T11:27:47;97691.41;;;5.88;72.57
75312;BME280;63906;55.686;37.532;2022-10-30T11:33:33;97707.19;;;5.61;74.17
75312;BME280;63906;55.686;37.532;2022-10-30T11:38:53;97709.53;;;5.76;74.38
75312;BME280;63906;55.686;37.532;2022-10-30T11:44:15;97736.66;;;5.75;72.54
75312;BME280;63906;55.686;37.532;2022-10-30T11:49:53;97722.03;;;5.61;71.91
75312;BME280;63906;55.686;37.532;2022-10-30T11:55:40;97698.22;;;5.31;70.97
75312;BME280;63906;55.686;37.532;2022-10-30T12:01:13;97705.63;;;5.27;67.91
75312;BME280;63906;55.686;37.532;2022-10-30T12:06:35;97701.22;;;5.28;66.50
75312;BME280;63906;55.686;37.532;2022-10-30T12:11:54;97661.91;;;5.23;67.60
75312;BME280;63906;55.686;37.532;2022-10-30T12:17:15;97678.91;;;5.38;67.28
75312;BME280;63906;55.686;37.532;2022-10-30T12:22:34;97693.69;;;5.71;66.26
75312;BME280;63906;55.686;37.532;2022-10-30T12:33:50;97709.84;;;6.06;64.34
75312;BME280;63906;55.686;37.532;2022-10-30T12:39:28;97763.66;;;6.14;62.51
75312;BME280;63906;55.686;37.532;2022-10-30T12:45:12;97753.78;;;5.18;67.91
75312;BME280;63906;55.686;37.532;2022-10-30T12:56:12;97753.47;;;4.33;71.72
75312;BME280;63906;55.686;37.532;2022-10-30T13:13:59;97827.66;;;3.68;77.41
75312;BME280;63906;55.686;37.532;2022-10-30T13:19:12;97826.31;;;3.02;78.91
75312;BME280;63906;55.686;37.532;2022-10-30T13:24:42;97797.41;;;2.68;80.76
75312;BME280;63906;55.686;37.532;2022-10-30T13:30:11;97788.63;;;2.69;81.31
75312;BME280;63906;55.686;37.532;2022-10-30T13:35:52;97774.75;;;2.84;81.54
75312;BME280;63906;55.686;37.532;2022-10-30T13:52:23;97748.91;;;2.76;79.86
75312;BME280;63906;55.686;37.532;2022-10-30T13:58:03;97790.34;;;2.84;79.40
75312;BME280;63906;55.686;37.532;2022-10-30T14:25:25;97834.84;;;2.59;78.49
75312;BME280;63906;55.686;37.532;2022-10-30T14:30:45;97762.22;;;2.30;79.29
75312;BME280;63906;55.686;37.532;2022-10-30T14:36:24;97750.81;;;2.46;80.00
75312;BME280;63906;55.686;37.532;2022-10-30T14:59:19;97844.25;;;2.60;78.27
75312;BME280;63906;55.686;37.532;2022-10-30T15:10:38;97844.44;;;1.93;81.20
75312;BME280;63906;55.686;37.532;2022-10-30T15:16:07;97857.03;;;1.81;81.98
75312;BME280;63906;55.686;37.532;2022-10-30T15:21:27;97863.50;;;2.00;82.39
75312;BME280;63906;55.686;37.532;2022-10-30T15:26:53;97875.94;;;2.20;81.30
75312;BME280;63906;55.686;37.532;2022-10-30T15:32:16;97888.72;;;2.21;80.77
75312;BME280;63906;55.686;37.532;2022-10-30T15:37:36;97881.56;;;2.08;81.06
75312;BME280;63906;55.686;37.532;2022-10-30T15:42:57;97870.72;;;2.05;80.28
75312;BME280;63906;55.686;37.532;2022-10-30T15:48:32;97902.50;;;2.07;80.28
75312;BME280;63906;55.686;37.532;2022-10-30T15:53:57;97813.41;;;1.32;79.58
75312;BME280;63906;55.686;37.532;2022-10-30T16:04:36;97915.66;;;1.68;76.39
75312;BME280;63906;55.686;37.532;2022-10-30T16:09:57;97931.28;;;1.59;78.72
75312;BME280;63906;55.686;37.532;2022-10-30T16:15:27;97932.34;;;1.50;78.94
75312;BME280;63906;55.686;37.532;2022-10-30T16:20:50;97911.31;;;1.45;76.97
75312;BME280;63906;55.686;37.532;2022-10-30T16:26:24;97918.19;;;1.38;77.89
75312;BME280;63906;55.686;37.532;2022-10-30T16:31:44;97915.03;;;1.43;76.56
75312;BME280;63906;55.686;37.532;2022-10-30T16:37:11;97916.31;;;1.24;76.46
75312;BME280;63906;55.686;37.532;2022-10-30T16:42:32;97928.06;;;1.34;76.21
75312;BME280;63906;55.686;37.532;2022-10-30T16:47:57;97924.16;;;1.16;76.48
75312;BME280;63906;55.686;37.532;2022-10-30T16:53:24;97912.50;;;1.12;76.69
75312;BME280;63906;55.686;37.532;2022-10-30T16:58:43;97910.06;;;1.18;76.68
75312;BME280;63906;55.686;37.532;2022-10-30T17:04:03;97941.44;;;1.46;76.95
75312;BME280;63906;55.686;37.532;2022-10-30T17:09:25;97936.53;;;1.28;78.37
75312;BME280;63906;55.686;37.532;2022-10-30T17:14:50;97942.66;;;1.35;77.49
75312;BME280;63906;55.686;37.532;2022-10-30T17:20:25;97903.41;;;1.16;77.07
75312;BME280;63906;55.686;37.532;2022-10-30T17:25:44;97930.84;;;1.33;77.76
75312;BME280;63906;55.686;37.532;2022-10-30T17:31:40;97934.03;;;1.43;77.35
75312;BME280;63906;55.686;37.532;2022-10-30T17:36:59;97931.19;;;1.30;76.97
75312;BME280;63906;55.686;37.532;2022-10-30T17:42:19;97930.47;;;1.36;77.61
75312;BME280;63906;55.686;37.532;2022-10-30T17:47:38;97920.81;;;1.30;77.74
75312;BME280;63906;55.686;37.532;2022-10-30T17:52:57;97921.84;;;1.21;78.04
75312;BME280;63906;55.686;37.532;2022-10-30T17:58:16;97904.59;;;1.13;77.70
75312;BME280;63906;55.686;37.532;2022-10-30T18:03:35;97913.50;;;1.11;77.67
75312;BME280;63906;55.686;37.532;2022-10-30T18:08:55;97931.41;;;1.20;77.76
75312;BME280;63906;55.686;37.532;2022-10-30T18:14:15;97899.84;;;1.17;76.89
75312;BME280;63906;55.686;37.532;2022-10-30T18:19:34;97901.88;;;1.06;75.46
75312;BME280;63906;55.686;37.532;2022-10-30T18:24:53;97916.97;;;1.26;75.17
75312;BME280;63906;55.686;37.532;2022-10-30T18:30:13;97895.13;;;0.97;75.83
75312;BME280;63906;55.686;37.532;2022-10-30T18:35:35;97873.81;;;0.87;75.24
75312;BME280;63906;55.686;37.532;2022-10-30T18:40:54;97918.56;;;1.04;75.00
75312;BME280;63906;55.686;37.532;2022-10-30T18:46:14;97890.69;;;0.83;76.04
75312;BME280;63906;55.686;37.532;2022-10-30T18:51:34;97928.72;;;1.05;73.36
75312;BME280;63906;55.686;37.532;2022-10-30T18:56:53;97902.31;;;0.87;75.30
75312;BME280;63906;55.686;37.532;2022-10-30T19:02:19;97909.72;;;0.90;75.08
75312;BME280;63906;55.686;37.532;2022-10-30T19:07:40;97895.34;;;0.88;75.12
75312;BME280;63906;55.686;37.532;2022-10-30T19:13:03;97908.00;;;0.83;74.13
75312;BME280;63906;55.686;37.532;2022-10-30T19:18:25;97913.31;;;0.89;73.90
75312;BME280;63906;55.686;37.532;2022-10-30T19:23:44;97920.44;;;0.87;73.01
75312;BME280;63906;55.686;37.532;2022-10-30T19:29:03;97925.56;;;0.95;72.15
75312;BME280;63906;55.686;37.532;2022-10-30T19:34:23;97911.03;;;0.86;72.69
75312;BME280;63906;55.686;37.532;2022-10-30T19:39:42;97915.53;;;0.92;71.74
75312;BME280;63906;55.686;37.532;2022-10-30T19:45:01;97912.25;;;0.75;73.96
75312;BME280;63906;55.686;37.532;2022-10-30T19:50:34;97897.75;;;0.58;72.39
75312;BME280;63906;55.686;37.532;2022-10-30T19:55:54;97904.69;;;0.66;73.28
75312;BME280;63906;55.686;37.532;2022-10-30T20:01:13;97900.47;;;0.65;72.98
75312;BME280;63906;55.686;37.532;2022-10-30T20:06:32;97897.84;;;0.73;72.07
75312;BME280;63906;55.686;37.532;2022-10-30T20:11:51;97881.13;;;0.52;72.74
75312;BME280;63906;55.686;37.532;2022-10-30T20:17:11;97901.09;;;0.67;72.70
75312;BME280;63906;55.686;37.532;2022-10-30T20:22:30;97893.22;;;0.60;71.79
75312;BME280;63906;55.686;37.532;2022-10-30T20:27:58;97898.03;;;0.71;70.36
75312;BME280;63906;55.686;37.532;2022-10-30T20:33:18;97867.88;;;0.47;71.96
75312;BME280;63906;55.686;37.532;2022-10-30T20:38:38;97899.72;;;0.56;70.44
75312;BME280;63906;55.686;37.532;2022-10-30T20:43:57;97881.75;;;0.54;71.08
75312;BME280;63906;55.686;37.532;2022-10-30T20:49:16;97870.50;;;0.39;70.75
75312;BME280;63906;55.686;37.532;2022-10-30T20:54:35;97887.28;;;0.51;69.56
75312;BME280;63906;55.686;37.532;2022-10-30T20:59:54;97865.69;;;0.28;71.10
75312;BME280;63906;55.686;37.532;2022-10-30T21:05:14;97891.66;;;0.43;70.09
75312;BME280;63906;55.686;37.532;2022-10-30T21:10:36;97924.50;;;0.50;70.39
75312;BME280;63906;55.686;37.532;2022-10-30T21:15:59;97903.31;;;0.47;68.79
75312;BME280;63906;55.686;37.532;2022-10-30T21:21:20;97904.25;;;0.54;69.11
75312;BME280;63906;55.686;37.532;2022-10-30T21:26:39;97877.66;;;0.29;69.41
75312;BME280;63906;55.686;37.532;2022-10-30T21:31:58;97903.84;;;0.34;69.97
75312;BME280;63906;55.686;37.532;2022-10-30T21:37:17;97910.97;;;0.32;70.15
75312;BME280;63906;55.686;37.532;2022-10-30T21:42:37;97866.91;;;0.01;70.42
75312;BME280;63906;55.686;37.532;2022-10-30T21:47:56;97905.50;;;0.19;69.38
75312;BME280;63906;55.686;37.532;2022-10-30T21:53:15;97886.59;;;0.10;70.30
75312;BME280;63906;55.686;37.532;2022-10-30T21:58:35;97907.03;;;0.44;68.95
75312;BME280;63906;55.686;37.532;2022-10-30T22:03:54;97907.56;;;0.71;67.50
75312;BME280;63906;55.686;37.532;2022-10-30T22:09:14;97900.41;;;0.81;65.32
75312;BME280;63906;55.686;37.532;2022-10-30T22:14:33;97890.69;;;0.83;66.64
75312;BME280;63906;55.686;37.532;2022-10-30T22:19:53;97902.69;;;0.76;67.12
75312;BME280;63906;55.686;37.532;2022-10-30T22:25:12;97891.97;;;0.56;67.65
75312;BME280;63906;55.686;37.532;2022-10-30T22:30:31;97895.16;;;0.58;66.95
75312;BME280;63906;55.686;37.532;2022-10-30T22:35:50;97898.94;;;0.47;66.88
75312;BME280;63906;55.686;37.532;2022-10-30T22:41:13;97879.03;;;0.48;66.15
75312;BME280;63906;55.686;37.532;2022-10-30T22:46:32;97897.63;;;0.51;67.17
75312;BME280;63906;55.686;37.532;2022-10-30T22:51:51;97853.91;;;0.25;68.46
75312;BME280;63906;55.686;37.532;2022-10-30T22:57:11;97890.50;;;0.53;66.60
75312;BME280;63906;55.686;37.532;2022-10-30T23:02:30;97882.69;;;0.62;66.87
75312;BME280;63906;55.686;37.532;2022-10-30T23:07:50;97865.22;;;0.56;65.13
75312;BME280;63906;55.686;37.532;2022-10-30T23:13:08;97882.06;;;0.60;67.01
75312;BME280;63906;55.686;37.532;2022-10-30T23:18:28;97875.59;;;0.56;68.09
75312;BME280;63906;55.686;37.532;2022-10-30T23:23:48;97848.78;;;0.48;67.50
75312;BME280;63906;55.686;37.532;2022-10-30T23:29:07;97858.50;;;0.77;66.07
75312;BME280;63906;55.686;37.532;2022-10-30T23:34:26;97862.06;;;0.76;65.77
75312;BME280;63906;55.686;37.532;2022-10-30T23:39:45;97848.03;;;0.71;65.92
75312;BME280;63906;55.686;37.532;2022-10-30T23:45:05;97858.97;;;0.81;65.23
75312;BME280;63906;55.686;37.532;2022-10-30T23:50:23;97855.03;;;0.85;64.36
75312;BME280;63906;55.686;37.532;2022-10-30T23:55:52;97815.97;;;0.72;64.18
